Time;durP1;ratioP1;P1;durP2;ratioP2;P2;SDS_P1;SDS_P2;PMS_P1;PMS_P2;Temp;Humidity;BMP_temperature;BMP_pressure;BME280_temperature;BME280_humidity;BME280_pressure;Samples;Min_cycle;Max_cycle;Signal;HPM_P1;HPM_P2
2022/03/02 00:00:04;;;;;;;;;;;;;;;;;;5034562;28;19988;-70
2022/03/02 00:02:30;;;;;;;;;;;;;;;;;;5034869;28;19909;-70
2022/03/02 00:04:56;;;;;;;;;;;;;;;;;;5017106;28;19940;-70
2022/03/02 00:07:22;;;;;;;;;;;;;;;;;;5034311;28;20289;-70
2022/03/02 00:09:48;;;;;;;;;;;;;;;;;;5034903;28;20478;-70
2022/03/02 00:12:14;;;;;;;;;;;;;;;;;;5017069;28;20343;-71
2022/03/02 00:14:40;;;;;;;;;;;;;;;;;;5034318;28;19956;-70
2022/03/02 00:17:06;;;;;;;;;;;;;;;;;;5034692;28;20008;-71
2022/03/02 00:19:32;;;;;;;;;;;;;;;;;;5034762;28;20419;-70
2022/03/02 00:21:58;;;;;;;;;;;;;;;;;;5034248;28;19920;-71
2022/03/02 00:24:24;;;;;;;;;;;;;;;;;;5034437;28;20293;-71
2022/03/02 00:26:50;;;;;;;;;;;;;;;;;;5034388;28;19924;-71
2022/03/02 00:29:16;;;;;;;;;;;;;;;;;;5034052;28;19915;-71
2022/03/02 00:31:42;;;;;;;;;;;;;;;;;;5034526;28;19909;-71
2022/03/02 00:34:08;;;;;;;;;;;;;;;;;;5034473;28;19920;-71
2022/03/02 00:36:34;;;;;;;;;;;;;;;;;;5033915;28;19937;-71
2022/03/02 00:39:00;;;;;;;;;;;;;;;;;;5033328;28;19953;-71
2022/03/02 00:41:26;;;;;;;;;;;;;;;;;;5016485;28;20285;-71
2022/03/02 00:43:52;;;;;;;;;;;;;;;;;;5033508;28;19921;-70
2022/03/02 00:46:18;;;;;;;;;;;;;;;;;;5034033;28;19979;-71
2022/03/02 00:48:44;;;;;;;;;;;;;;;;;;5034286;28;20362;-71
2022/03/02 00:51:10;;;;;;;;;;;;;;;;;;5033679;28;19909;-71
2022/03/02 00:53:36;;;;;;;;;;;;;;;;;;5016331;28;19992;-71
2022/03/02 00:56:02;;;;;;;;;;;;;;;;;;5016259;28;19994;-71
2022/03/02 00:58:28;;;;;;;;;;;;;;;;;;5033569;28;19909;-71
2022/03/02 01:00:54;;;;;;;;;;;;;;;;;;5034007;28;19989;-71
2022/03/02 01:03:20;;;;;;;;;;;;;;;;;;5033491;28;19917;-70
2022/03/02 01:05:46;;;;;;;;;;;;;;;;;;5016082;28;19971;-71
2022/03/02 01:08:12;;;;;;;;;;;;;;;;;;5033884;28;20328;-70
2022/03/02 01:10:38;;;;;;;;;;;;;;;;;;5015643;28;19909;-71
2022/03/02 01:13:04;;;;;;;;;;;;;;;;;;5033839;28;19909;-71
2022/03/02 01:15:30;;;;;;;;;;;;;;;;;;5033695;28;19955;-71
2022/03/02 01:17:56;;;;;;;;;;;;;;;;;;5015830;28;19909;-71
2022/03/02 01:20:22;;;;;;;;;;;;;;;;;;5033753;28;19913;-71
2022/03/02 01:22:48;;;;;;;;;;;;;;;;;;5015824;28;20317;-71
2022/03/02 01:25:14;;;;;;;;;;;;;;;;;;5033307;28;19959;-71
2022/03/02 01:27:39;;;;;;;;;;;;;;;;;;5033661;28;20268;-71
2022/03/02 01:30:05;;;;;;;;;;;;;;;;;;5015921;28;19909;-71
2022/03/02 01:32:32;;;;;;;;;;;;;;;;;;5015432;28;19910;-71
2022/03/02 01:34:58;;;;;;;;;;;;;;;;;;5015811;28;19944;-71
2022/03/02 01:37:24;;;;;;;;;;;;;;;;;;5015871;28;20321;-71
2022/03/02 01:39:50;;;;;;;;;;;;;;;;;;5033204;28;19909;-71
2022/03/02 01:42:16;;;;;;;;;;;;;;;;;;5033393;28;20362;-71
2022/03/02 01:44:42;;;;;;;;;;;;;;;;;;5033647;28;19915;-71
2022/03/02 01:47:08;;;;;;;;;;;;;;;;;;5033016;28;20019;-71
2022/03/02 01:49:34;;;;;;;;;;;;;;;;;;5033486;28;20312;-71
2022/03/02 01:52:00;;;;;;;;;;;;;;;;;;5019149;28;19910;-71
2022/03/02 01:54:26;;;;;;;;;;;;;;;;;;5036925;28;19909;-71
2022/03/02 01:56:52;;;;;;;;;;;;;;;;;;5037289;28;19999;-71
2022/03/02 01:59:18;;;;;;;;;;;;;;;;;;5019435;28;19913;-71
2022/03/02 02:01:44;;;;;;;;;;;;;;;;;;5036812;28;19955;-71
2022/03/02 02:04:10;;;;;;;;;;;;;;;;;;5019353;28;19909;-71
2022/03/02 02:06:36;;;;;;;;;;;;;;;;;;5018783;28;19917;-70
2022/03/02 02:09:02;;;;;;;;;;;;;;;;;;5037576;28;20263;-71
2022/03/02 02:11:28;;;;;;;;;;;;;;;;;;5036939;28;20404;-70
2022/03/02 02:13:54;;;;;;;;;;;;;;;;;;5036662;28;20232;-71
2022/03/02 02:16:20;;;;;;;;;;;;;;;;;;5019113;28;19909;-72
2022/03/02 02:18:46;;;;;;;;;;;;;;;;;;5036872;28;20384;-71
2022/03/02 02:21:12;;;;;;;;;;;;;;;;;;5036486;28;19920;-71
2022/03/02 02:23:38;;;;;;;;;;;;;;;;;;5018973;28;19932;-71
2022/03/02 02:26:04;;;;;;;;;;;;;;;;;;5036642;28;20423;-71
2022/03/02 02:28:30;;;;;;;;;;;;;;;;;;5018488;28;20354;-71
2022/03/02 02:30:56;;;;;;;;;;;;;;;;;;5037150;28;19910;-71
2022/03/02 02:33:22;;;;;;;;;;;;;;;;;;5018905;28;19909;-70
2022/03/02 02:35:48;;;;;;;;;;;;;;;;;;5036187;28;20327;-70
2022/03/02 02:38:14;;;;;;;;;;;;;;;;;;5036493;28;20001;-71
2022/03/02 02:40:40;;;;;;;;;;;;;;;;;;5036423;28;19964;-71
2022/03/02 02:43:06;;;;;;;;;;;;;;;;;;5031717;28;19920;-70
2022/03/02 02:45:32;;;;;;;;;;;;;;;;;;5054937;28;19924;-71
2022/03/02 02:47:58;;;;;;;;;;;;;;;;;;5055066;28;19912;-70
2022/03/02 02:50:24;;;;;;;;;;;;;;;;;;5054534;28;19916;-70
2022/03/02 02:52:50;;;;;;;;;;;;;;;;;;5056466;28;19909;-70
2022/03/02 02:55:16;;;;;;;;;;;;;;;;;;5056242;28;19909;-71
2022/03/02 02:57:42;;;;;;;;;;;;;;;;;;5055598;28;19916;-71
2022/03/02 03:00:08;;;;;;;;;;;;;;;;;;5056017;28;19916;-71
2022/03/02 03:02:34;;;;;;;;;;;;;;;;;;5054930;28;20427;-70
2022/03/02 03:05:00;;;;;;;;;;;;;;;;;;5055597;28;19932;-70
2022/03/02 03:07:26;;;;;;;;;;;;;;;;;;5055773;28;19956;-70
2022/03/02 03:09:52;;;;;;;;;;;;;;;;;;5055400;28;20388;-70
2022/03/02 03:12:18;;;;;;;;;;;;;;;;;;5055972;28;20003;-70
2022/03/02 03:14:44;;;;;;;;;;;;;;;;;;5054451;28;19909;-70
2022/03/02 03:17:10;;;;;;;;;;;;;;;;;;5055267;28;20351;-70
2022/03/02 03:19:36;;;;;;;;;;;;;;;;;;5055654;28;19912;-71
2022/03/02 03:22:02;;;;;;;;;;;;;;;;;;5054244;28;19909;-70
2022/03/02 03:24:28;;;;;;;;;;;;;;;;;;5053797;28;19920;-70
2022/03/02 03:26:54;;;;;;;;;;;;;;;;;;5055446;28;19917;-70
2022/03/02 03:29:20;;;;;;;;;;;;;;;;;;5055575;28;19909;-71
2022/03/02 03:31:46;;;;;;;;;;;;;;;;;;5055127;28;19909;-70
2022/03/02 03:34:12;;;;;;;;;;;;;;;;;;5054007;28;19993;-71
2022/03/02 03:36:38;;;;;;;;;;;;;;;;;;5055256;28;19912;-70
2022/03/02 03:39:04;;;;;;;;;;;;;;;;;;5053587;28;19916;-70
2022/03/02 03:41:30;;;;;;;;;;;;;;;;;;5055169;28;19909;-70
2022/03/02 03:43:56;;;;;;;;;;;;;;;;;;5039759;28;19975;-70
2022/03/02 03:46:22;;;;;;;;;;;;;;;;;;5034932;28;19917;-70
2022/03/02 03:48:49;;;;;;;;;;;;;;;;;;5035747;28;19913;-70
2022/03/02 03:51:15;;;;;;;;;;;;;;;;;;5035179;28;19909;-70
2022/03/02 03:53:41;;;;;;;;;;;;;;;;;;5034702;28;19910;-70
2022/03/02 03:56:07;;;;;;;;;;;;;;;;;;5035095;28;19909;-70
2022/03/02 03:58:33;;;;;;;;;;;;;;;;;;5017237;28;19909;-71
2022/03/02 04:00:59;;;;;;;;;;;;;;;;;;5034599;28;19916;-71
2022/03/02 04:03:25;;;;;;;;;;;;;;;;;;5035448;28;19913;-70
2022/03/02 04:05:51;;;;;;;;;;;;;;;;;;5034703;28;19921;-70
2022/03/02 04:08:17;;;;;;;;;;;;;;;;;;5034433;28;19917;-70
2022/03/02 04:10:45;;;;;;;;;;;;;;;;;;5017026;28;19909;-70
2022/03/02 04:13:11;;;;;;;;;;;;;;;;;;5034009;28;19910;-70
2022/03/02 04:15:37;;;;;;;;;;;;;;;;;;5034630;28;19916;-70
2022/03/02 04:18:03;;;;;;;;;;;;;;;;;;5034528;28;19915;-70
2022/03/02 04:20:29;;;;;;;;;;;;;;;;;;5034220;28;20340;-72
2022/03/02 04:22:55;;;;;;;;;;;;;;;;;;5016808;28;19916;-72
2022/03/02 04:25:21;;;;;;;;;;;;;;;;;;5016706;28;19909;-71
2022/03/02 04:27:47;;;;;;;;;;;;;;;;;;5034020;28;19909;-71
2022/03/02 04:30:13;;;;;;;;;;;;;;;;;;5034403;28;19955;-70
2022/03/02 04:32:39;;;;;;;;;;;;;;;;;;5034460;28;19932;-70
2022/03/02 04:35:05;;;;;;;;;;;;;;;;;;5034173;28;20358;-70
2022/03/02 04:37:31;;;;;;;;;;;;;;;;;;5034581;28;19913;-70
2022/03/02 04:39:57;;;;;;;;;;;;;;;;;;5016559;28;19909;-70
2022/03/02 04:42:23;;;;;;;;;;;;;;;;;;5033599;28;19913;-70
2022/03/02 04:44:49;;;;;;;;;;;;;;;;;;5034292;28;19913;-70
2022/03/02 04:47:15;;;;;;;;;;;;;;;;;;5034168;28;20055;-71
2022/03/02 04:49:41;;;;;;;;;;;;;;;;;;5033669;28;20385;-71
2022/03/02 04:52:07;;;;;;;;;;;;;;;;;;5016397;28;19909;-70
2022/03/02 04:57:18;;;;;;;;;;;;;;;;;;5033679;28;20439;-70
2022/03/02 04:59:44;;;;;;;;;;;;;;;;;;5016271;28;20008;-71
2022/03/02 05:02:10;;;;;;;;;;;;;;;;;;5033995;28;19909;-73
2022/03/02 05:04:36;;;;;;;;;;;;;;;;;;5033501;28;19909;-72
2022/03/02 05:07:02;;;;;;;;;;;;;;;;;;5033736;28;19917;-72
2022/03/02 05:09:28;;;;;;;;;;;;;;;;;;5033886;28;19913;-72
2022/03/02 05:11:54;;;;;;;;;;;;;;;;;;5033803;28;19971;-72
2022/03/02 05:14:20;;;;;;;;;;;;;;;;;;5034029;28;19955;-72
2022/03/02 05:16:46;;;;;;;;;;;;;;;;;;5033464;28;19909;-72
2022/03/02 05:19:12;;;;;;;;;;;;;;;;;;5034267;28;20247;-74
2022/03/02 05:21:38;;;;;;;;;;;;;;;;;;5033733;28;20060;-73
2022/03/02 05:24:04;;;;;;;;;;;;;;;;;;5015563;28;19915;-73
2022/03/02 05:26:30;;;;;;;;;;;;;;;;;;5036604;28;19989;-73
2022/03/02 05:28:56;;;;;;;;;;;;;;;;;;5019983;28;19920;-72
2022/03/02 05:31:24;;;;;;;;;;;;;;;;;;5037632;28;19948;-72
2022/03/02 05:33:51;;;;;;;;;;;;;;;;;;5038261;28;19909;-72
2022/03/02 05:36:17;;;;;;;;;;;;;;;;;;5037650;28;20068;-72
2022/03/02 05:38:43;;;;;;;;;;;;;;;;;;5037232;28;20338;-72
2022/03/02 05:41:09;;;;;;;;;;;;;;;;;;5019800;28;19952;-72
2022/03/02 05:43:35;;;;;;;;;;;;;;;;;;5037472;28;19961;-72
2022/03/02 05:46:01;;;;;;;;;;;;;;;;;;5037282;28;20413;-72
2022/03/02 05:48:27;;;;;;;;;;;;;;;;;;5037404;28;19915;-72
2022/03/02 05:50:53;;;;;;;;;;;;;;;;;;5037497;28;19916;-72
2022/03/02 05:53:19;;;;;;;;;;;;;;;;;;5019203;28;19909;-73
2022/03/02 05:55:45;;;;;;;;;;;;;;;;;;5035786;28;20270;-71
2022/03/02 05:58:11;;;;;;;;;;;;;;;;;;5034017;28;19917;-73
2022/03/02 06:00:37;;;;;;;;;;;;;;;;;;5035951;28;19913;-71
2022/03/02 06:03:03;;;;;;;;;;;;;;;;;;5036770;28;19909;-72
2022/03/02 06:05:29;;;;;;;;;;;;;;;;;;5018192;28;19932;-71
2022/03/02 06:07:55;;;;;;;;;;;;;;;;;;5035609;28;19909;-71
2022/03/02 06:10:21;;;;;;;;;;;;;;;;;;5018986;28;19909;-72
2022/03/02 06:12:47;;;;;;;;;;;;;;;;;;5036360;28;19990;-72
2022/03/02 06:15:13;;;;;;;;;;;;;;;;;;5017332;28;20044;-74
2022/03/02 06:17:39;;;;;;;;;;;;;;;;;;5022054;28;20365;-75
2022/03/02 06:20:05;;;;;;;;;;;;;;;;;;5035118;28;20000;-72
2022/03/02 06:22:31;;;;;;;;;;;;;;;;;;5035821;28;19945;-72
2022/03/02 06:24:58;;;;;;;;;;;;;;;;;;5018348;28;19915;-72
2022/03/02 06:27:24;;;;;;;;;;;;;;;;;;5055451;28;19917;-74
2022/03/02 06:29:50;;;;;;;;;;;;;;;;;;5037765;28;20353;-72
2022/03/02 06:32:16;;;;;;;;;;;;;;;;;;5037295;28;19931;-73
2022/03/02 06:34:42;;;;;;;;;;;;;;;;;;5036116;28;19913;-74
2022/03/02 06:37:08;;;;;;;;;;;;;;;;;;5033109;28;19940;-73
2022/03/02 06:39:34;;;;;;;;;;;;;;;;;;5035579;28;19909;-74
2022/03/02 06:42:00;;;;;;;;;;;;;;;;;;5017222;28;19959;-76
2022/03/02 06:44:26;;;;;;;;;;;;;;;;;;5035441;28;19922;-74
2022/03/02 06:46:52;;;;;;;;;;;;;;;;;;5035651;28;20008;-73
2022/03/02 06:49:18;;;;;;;;;;;;;;;;;;5017478;28;19924;-75
2022/03/02 06:51:44;;;;;;;;;;;;;;;;;;5015540;28;19909;-75
2022/03/02 06:54:10;;;;;;;;;;;;;;;;;;5032193;28;20000;-78
2022/03/02 06:56:36;;;;;;;;;;;;;;;;;;5014910;28;20051;-78
2022/03/02 06:59:02;;;;;;;;;;;;;;;;;;5033364;28;20370;-76
2022/03/02 07:01:28;;;;;;;;;;;;;;;;;;5015106;28;19928;-73
2022/03/02 07:03:54;;;;;;;;;;;;;;;;;;5031742;28;19913;-73
2022/03/02 07:06:20;;;;;;;;;;;;;;;;;;5015523;28;19951;-75
2022/03/02 07:08:48;;;;;;;;;;;;;;;;;;5035319;28;20365;-74
2022/03/02 07:11:16;;;;;;;;;;;;;;;;;;5017129;28;20030;-75
2022/03/02 07:13:42;;;;;;;;;;;;;;;;;;5035237;28;19909;-74
2022/03/02 07:16:08;;;;;;;;;;;;;;;;;;5034963;28;19960;-74
2022/03/02 07:18:34;;;;;;;;;;;;;;;;;;5013312;28;19955;-73
2022/03/02 07:21:00;;;;;;;;;;;;;;;;;;5031715;28;19909;-72
2022/03/02 07:23:26;;;;;;;;;;;;;;;;;;5016597;28;19909;-72
2022/03/02 07:25:53;;;;;;;;;;;;;;;;;;5032903;28;20123;-72
2022/03/02 07:28:20;;;;;;;;;;;;;;;;;;5017044;28;20280;-72
2022/03/02 07:30:46;;;;;;;;;;;;;;;;;;5033337;28;19996;-74
2022/03/02 07:33:12;;;;;;;;;;;;;;;;;;5017159;28;19971;-76
2022/03/02 07:35:38;;;;;;;;;;;;;;;;;;5034483;28;19917;-74
2022/03/02 07:38:04;;;;;;;;;;;;;;;;;;5016760;28;19916;-75
2022/03/02 07:40:30;;;;;;;;;;;;;;;;;;5034721;28;19909;-75
2022/03/02 07:42:56;;;;;;;;;;;;;;;;;;5034823;28;19952;-74
2022/03/02 07:45:22;;;;;;;;;;;;;;;;;;5031434;28;19955;-72
2022/03/02 07:47:48;;;;;;;;;;;;;;;;;;5034031;28;19921;-75
2022/03/02 07:50:14;;;;;;;;;;;;;;;;;;5016634;28;19916;-74
2022/03/02 07:52:40;;;;;;;;;;;;;;;;;;5033260;28;19917;-72
2022/03/02 07:55:09;;;;;;;;;;;;;;;;;;5034078;28;19913;-74
2022/03/02 07:57:35;;;;;;;;;;;;;;;;;;5032178;28;19913;-75
2022/03/02 08:00:03;;;;;;;;;;;;;;;;;;5032740;28;20254;-74
2022/03/02 08:02:29;;;;;;;;;;;;;;;;;;5033533;28;19909;-75
2022/03/02 08:04:55;;;;;;;;;;;;;;;;;;5016261;28;20250;-73
2022/03/02 08:07:21;;;;;;;;;;;;;;;;;;5015558;28;20266;-75
2022/03/02 08:09:47;;;;;;;;;;;;;;;;;;5033934;28;19935;-72
2022/03/02 08:12:13;;;;;;;;;;;;;;;;;;5033614;28;19962;-74
2022/03/02 08:14:40;;;;;;;;;;;;;;;;;;5015639;28;19909;-74
2022/03/02 08:17:06;;;;;;;;;;;;;;;;;;5033705;28;19998;-74
2022/03/02 08:19:32;;;;;;;;;;;;;;;;;;5033425;28;19944;-74
2022/03/02 08:21:58;;;;;;;;;;;;;;;;;;5016069;28;19974;-75
2022/03/02 08:24:24;;;;;;;;;;;;;;;;;;5029745;28;19909;-74
2022/03/02 08:26:52;;;;;;;;;;;;;;;;;;5015320;28;19971;-75
2022/03/02 08:29:18;;;;;;;;;;;;;;;;;;5016106;28;20412;-73
2022/03/02 08:31:44;;;;;;;;;;;;;;;;;;5032991;28;19988;-73
2022/03/02 08:34:10;;;;;;;;;;;;;;;;;;5033206;28;20056;-77
2022/03/02 08:36:36;;;;;;;;;;;;;;;;;;5033618;28;19912;-74
2022/03/02 08:39:02;;;;;;;;;;;;;;;;;;5015947;28;19915;-75
2022/03/02 08:41:28;;;;;;;;;;;;;;;;;;5015230;28;20420;-76
2022/03/02 08:43:57;;;;;;;;;;;;;;;;;;5057211;28;20208;-76
2022/03/02 08:46:23;;;;;;;;;;;;;;;;;;5049724;28;19918;-76
2022/03/02 08:48:49;;;;;;;;;;;;;;;;;;5052419;28;19916;-75
2022/03/02 08:51:16;;;;;;;;;;;;;;;;;;5067691;28;20300;-73
2022/03/02 08:53:43;;;;;;;;;;;;;;;;;;5066145;28;19908;-73
2022/03/02 08:56:09;;;;;;;;;;;;;;;;;;5065602;28;19916;-75
2022/03/02 08:58:35;;;;;;;;;;;;;;;;;;5051151;28;19935;-70
2022/03/02 09:01:02;;;;;;;;;;;;;;;;;;5050466;28;19955;-75
2022/03/02 09:03:28;;;;;;;;;;;;;;;;;;5050689;28;19909;-73
2022/03/02 09:05:53;;;;;;;;;;;;;;;;;;5033323;28;19924;-73
2022/03/02 09:08:19;;;;;;;;;;;;;;;;;;5034736;28;19987;-74
2022/03/02 09:10:45;;;;;;;;;;;;;;;;;;5052274;28;19913;-75
2022/03/02 09:13:11;;;;;;;;;;;;;;;;;;5053203;28;20332;-78
2022/03/02 09:15:37;;;;;;;;;;;;;;;;;;5034917;28;19931;-74
2022/03/02 09:18:04;;;;;;;;;;;;;;;;;;5053170;28;19913;-74
2022/03/02 09:20:30;;;;;;;;;;;;;;;;;;5033830;28;20265;-77
2022/03/02 09:22:56;;;;;;;;;;;;;;;;;;5052640;28;19931;-75
2022/03/02 09:25:22;;;;;;;;;;;;;;;;;;5034890;28;20254;-75
2022/03/02 09:27:48;;;;;;;;;;;;;;;;;;5053028;28;19943;-74
2022/03/02 09:30:14;;;;;;;;;;;;;;;;;;5052499;28;20230;-74
2022/03/02 09:32:40;;;;;;;;;;;;;;;;;;5035223;28;20000;-77
2022/03/02 09:35:06;;;;;;;;;;;;;;;;;;5052968;28;19912;-78
2022/03/02 09:37:32;;;;;;;;;;;;;;;;;;5051098;28;19967;-76
2022/03/02 09:39:58;;;;;;;;;;;;;;;;;;5052837;28;19944;-76
2022/03/02 09:42:24;;;;;;;;;;;;;;;;;;5049902;28;19916;-75
2022/03/02 09:44:50;;;;;;;;;;;;;;;;;;5032637;28;19971;-78
2022/03/02 09:47:16;;;;;;;;;;;;;;;;;;5014427;28;20381;-75
2022/03/02 09:49:42;;;;;;;;;;;;;;;;;;5011916;28;19915;-74
2022/03/02 09:52:09;;;;;;;;;;;;;;;;;;5032144;28;19913;-77
2022/03/02 09:54:39;;;;;;;;;;;;;;;;;;5026101;28;19920;-74
2022/03/02 09:57:06;;;;;;;;;;;;;;;;;;5021313;28;19909;-74
2022/03/02 09:59:32;;;;;;;;;;;;;;;;;;5032290;28;19910;-74
2022/03/02 10:02:00;;;;;;;;;;;;;;;;;;5032214;28;19914;-73
2022/03/02 10:04:26;;;;;;;;;;;;;;;;;;5032649;28;19939;-74
2022/03/02 10:06:52;;;;;;;;;;;;;;;;;;5031269;28;20028;-73
2022/03/02 10:09:18;;;;;;;;;;;;;;;;;;5032562;28;19936;-74
2022/03/02 10:11:44;;;;;;;;;;;;;;;;;;5016089;28;19976;-69
2022/03/02 10:14:10;;;;;;;;;;;;;;;;;;5029891;28;19920;-75
2022/03/02 10:16:36;;;;;;;;;;;;;;;;;;5044256;28;20035;-74
2022/03/02 10:19:02;;;;;;;;;;;;;;;;;;5046706;28;20293;-74
2022/03/02 10:21:28;;;;;;;;;;;;;;;;;;5038866;28;20441;-75
2022/03/02 10:23:54;;;;;;;;;;;;;;;;;;5015397;28;19916;-75
2022/03/02 10:26:20;;;;;;;;;;;;;;;;;;4995728;28;20454;-73
2022/03/02 10:28:46;;;;;;;;;;;;;;;;;;5012238;28;19909;-74
2022/03/02 10:31:13;;;;;;;;;;;;;;;;;;5015447;28;19909;-74
2022/03/02 10:33:39;;;;;;;;;;;;;;;;;;5011214;28;19917;-73
2022/03/02 10:36:05;;;;;;;;;;;;;;;;;;5010805;28;20564;-74
2022/03/02 10:38:31;;;;;;;;;;;;;;;;;;5011043;28;19996;-75
2022/03/02 10:40:57;;;;;;;;;;;;;;;;;;5010906;28;19909;-74
2022/03/02 10:43:23;;;;;;;;;;;;;;;;;;5011155;28;20008;-69
2022/03/02 10:45:51;;;;;;;;;;;;;;;;;;5028208;28;20015;-75
2022/03/02 10:48:19;;;;;;;;;;;;;;;;;;5031306;28;19909;-73
2022/03/02 10:50:46;;;;;;;;;;;;;;;;;;5032603;28;20012;-72
2022/03/02 10:53:13;;;;;;;;;;;;;;;;;;5034218;28;20009;-74
2022/03/02 10:55:39;;;;;;;;;;;;;;;;;;5015917;28;19966;-74
2022/03/02 10:58:05;;;;;;;;;;;;;;;;;;5034098;28;20530;-72
2022/03/02 11:00:31;;;;;;;;;;;;;;;;;;5017285;28;19910;-74
2022/03/02 11:02:58;;;;;;;;;;;;;;;;;;5016843;28;19913;-75
2022/03/02 11:05:24;;;;;;;;;;;;;;;;;;5016972;28;19909;-73
2022/03/02 11:07:50;;;;;;;;;;;;;;;;;;5032058;28;20396;-73
2022/03/02 11:10:16;;;;;;;;;;;;;;;;;;5033706;28;19914;-72
2022/03/02 11:12:42;;;;;;;;;;;;;;;;;;5016678;28;20407;-72
2022/03/02 11:15:08;;;;;;;;;;;;;;;;;;5014313;28;19917;-75
2022/03/02 11:17:34;;;;;;;;;;;;;;;;;;5032417;28;19920;-73
2022/03/02 11:20:00;;;;;;;;;;;;;;;;;;5032980;28;19955;-74
2022/03/02 11:22:26;;;;;;;;;;;;;;;;;;5032217;28;20308;-74
2022/03/02 11:24:53;;;;;;;;;;;;;;;;;;5013867;28;19959;-73
2022/03/02 11:27:19;;;;;;;;;;;;;;;;;;5015212;28;19921;-73
2022/03/02 11:29:45;;;;;;;;;;;;;;;;;;5015210;28;19909;-71
2022/03/02 11:32:11;;;;;;;;;;;;;;;;;;5032155;28;19916;-72
2022/03/02 11:34:37;;;;;;;;;;;;;;;;;;5033167;28;19909;-75
2022/03/02 11:37:07;;;;;;;;;;;;;;;;;;5032811;28;19916;-72
2022/03/02 11:39:33;;;;;;;;;;;;;;;;;;5017306;28;19909;-73
2022/03/02 11:41:59;;;;;;;;;;;;;;;;;;5035334;28;20024;-73
2022/03/02 11:44:25;;;;;;;;;;;;;;;;;;5053549;28;20357;-72
2022/03/02 11:46:51;;;;;;;;;;;;;;;;;;5053722;28;19917;-73
2022/03/02 11:49:17;;;;;;;;;;;;;;;;;;5054752;28;19908;-71
2022/03/02 11:54:01;;;;;;;;;;;;;;;;;;5110652;27;20269;-72
2022/03/02 11:57:31;;;;;;;;;;;;;;;;;;5110922;27;20007;-73
2022/03/02 11:59:57;;;;;;;;;;;;;;;;;;5092410;28;19927;-70
2022/03/02 12:04:44;;;;;;;;;;;;;;;;;;5111520;27;19916;-71
2022/03/02 12:07:10;;;;;;;;;;;;;;;;;;5111191;28;19934;-70
2022/03/02 12:09:36;;;;;;;;;;;;;;;;;;5109664;28;20364;-71
2022/03/02 12:13:00;;;;;;;;;;;;;;;;;;5109684;27;19912;-69
2022/03/02 12:15:26;;;;;;;;;;;;;;;;;;5109235;28;19962;-70
2022/03/02 12:21:05;;;;;;;;;;;;;;;;;;5090955;27;19918;-70
2022/03/02 12:23:32;;;;;;;;;;;;;;;;;;5088126;28;19951;-70
2022/03/02 12:25:58;;;;;;;;;;;;;;;;;;5087082;28;19962;-71
2022/03/02 12:28:24;;;;;;;;;;;;;;;;;;5088729;28;19917;-72
2022/03/02 12:30:50;;;;;;;;;;;;;;;;;;5087547;28;20338;-71
2022/03/02 12:33:16;;;;;;;;;;;;;;;;;;5086040;28;20402;-71
2022/03/02 12:35:42;;;;;;;;;;;;;;;;;;5087460;28;19926;-71
2022/03/02 12:38:09;;;;;;;;;;;;;;;;;;5086044;28;19973;-72
2022/03/02 12:40:40;;;;;;;;;;;;;;;;;;5089410;28;19928;-73
2022/03/02 12:43:06;;;;;;;;;;;;;;;;;;5086909;28;19908;-70
2022/03/02 12:45:32;;;;;;;;;;;;;;;;;;5087424;28;19953;-70
2022/03/02 12:47:59;;;;;;;;;;;;;;;;;;5089764;28;19909;-70
2022/03/02 12:50:25;;;;;;;;;;;;;;;;;;5088924;28;19919;-70
2022/03/02 12:52:51;;;;;;;;;;;;;;;;;;5089039;28;20284;-70
2022/03/02 12:55:17;;;;;;;;;;;;;;;;;;5089575;28;19934;-70
2022/03/02 12:57:43;;;;;;;;;;;;;;;;;;5090183;28;19909;-71
2022/03/02 13:00:09;;;;;;;;;;;;;;;;;;5090064;28;20373;-71
2022/03/02 13:02:35;;;;;;;;;;;;;;;;;;5089910;28;19912;-71
2022/03/02 13:05:01;;;;;;;;;;;;;;;;;;5090356;28;20004;-71
2022/03/02 13:07:27;;;;;;;;;;;;;;;;;;5090110;28;20261;-72
2022/03/02 13:09:53;;;;;;;;;;;;;;;;;;5089567;28;19915;-71
2022/03/02 13:12:19;;;;;;;;;;;;;;;;;;5088847;28;19908;-71
2022/03/02 13:14:45;;;;;;;;;;;;;;;;;;5089844;28;19908;-71
2022/03/02 13:17:11;;;;;;;;;;;;;;;;;;5090131;28;20361;-71
2022/03/02 13:19:37;;;;;;;;;;;;;;;;;;5089657;28;20003;-70
2022/03/02 13:22:03;;;;;;;;;;;;;;;;;;5089504;28;20304;-70
2022/03/02 13:24:30;;;;;;;;;;;;;;;;;;5088941;28;19908;-71
2022/03/02 13:26:56;;;;;;;;;;;;;;;;;;5089437;28;20046;-73
2022/03/02 13:29:24;;;;;;;;;;;;;;;;;;5085008;28;19962;-72
2022/03/02 13:31:50;;;;;;;;;;;;;;;;;;5079398;28;19909;-73
2022/03/02 13:34:17;;;;;;;;;;;;;;;;;;5075989;28;19954;-71
2022/03/02 13:36:45;;;;;;;;;;;;;;;;;;5073861;28;19939;-71
2022/03/02 13:39:11;;;;;;;;;;;;;;;;;;5075764;28;19920;-72
2022/03/02 13:41:37;;;;;;;;;;;;;;;;;;5074305;28;19970;-72
2022/03/02 13:44:03;;;;;;;;;;;;;;;;;;5074215;28;19909;-72
2022/03/02 13:46:29;;;;;;;;;;;;;;;;;;5075722;28;19909;-72
2022/03/02 13:48:55;;;;;;;;;;;;;;;;;;5075873;28;19915;-72
2022/03/02 13:51:21;;;;;;;;;;;;;;;;;;5075367;28;19962;-71
2022/03/02 13:53:55;;;;;;;;;;;;;;;;;;5075025;28;19915;-70
2022/03/02 13:56:21;;;;;;;;;;;;;;;;;;5075691;28;19915;-74
2022/03/02 13:58:48;;;;;;;;;;;;;;;;;;5074169;28;19951;-72
2022/03/02 14:01:14;;;;;;;;;;;;;;;;;;5075650;28;20380;-71
2022/03/02 14:03:43;;;;;;;;;;;;;;;;;;5075607;28;19909;-71
2022/03/02 14:06:09;;;;;;;;;;;;;;;;;;5073988;28;19919;-72
2022/03/02 14:08:35;;;;;;;;;;;;;;;;;;5073707;28;19913;-71
2022/03/02 14:11:02;;;;;;;;;;;;;;;;;;5074879;28;19915;-73
2022/03/02 14:14:28;;;;;;;;;;;;;;;;;;5090949;27;19913;-70
2022/03/02 14:16:54;;;;;;;;;;;;;;;;;;5090630;28;19944;-70
2022/03/02 14:19:20;;;;;;;;;;;;;;;;;;5090387;28;19908;-69
2022/03/02 14:21:46;;;;;;;;;;;;;;;;;;5090808;28;20368;-70
2022/03/02 14:25:21;;;;;;;;;;;;;;;;;;5110906;27;20303;-73
2022/03/02 14:27:47;;;;;;;;;;;;;;;;;;5111250;28;19912;-71
2022/03/02 14:30:54;;;;;;;;;;;;;;;;;;5110239;27;19912;-73
2022/03/02 14:36:02;;;;;;;;;;;;;;;;;;5152645;27;19911;-73
2022/03/02 14:40:48;;;;;;;;;;;;;;;;;;5090891;27;19916;-69
2022/03/02 14:43:14;;;;;;;;;;;;;;;;;;5091104;28;19912;-69
2022/03/02 14:45:40;;;;;;;;;;;;;;;;;;5091151;28;19923;-69
2022/03/02 14:49:10;;;;;;;;;;;;;;;;;;5091537;27;20291;-69
2022/03/02 14:51:36;;;;;;;;;;;;;;;;;;5089808;28;20403;-69
2022/03/02 14:54:02;;;;;;;;;;;;;;;;;;5089802;28;19910;-68
2022/03/02 14:56:32;;;;;;;;;;;;;;;;;;5091301;28;19954;-69
2022/03/02 14:58:58;;;;;;;;;;;;;;;;;;5091117;28;19909;-69
2022/03/02 15:01:24;;;;;;;;;;;;;;;;;;5090762;28;19962;-69
2022/03/02 15:03:50;;;;;;;;;;;;;;;;;;5091373;28;19913;-68
2022/03/02 15:06:17;;;;;;;;;;;;;;;;;;5091083;28;20384;-68
2022/03/02 15:08:44;;;;;;;;;;;;;;;;;;5089218;28;20265;-68
2022/03/02 15:11:10;;;;;;;;;;;;;;;;;;5089756;28;19912;-69
2022/03/02 15:16:20;;;;;;;;;;;;;;;;;;5090491;28;20404;-69
2022/03/02 15:18:46;;;;;;;;;;;;;;;;;;5090838;28;19912;-69
2022/03/02 15:21:13;;;;;;;;;;;;;;;;;;5088954;28;20371;-69
2022/03/02 15:23:39;;;;;;;;;;;;;;;;;;5091251;28;20357;-69
2022/03/02 15:26:05;;;;;;;;;;;;;;;;;;5089334;28;19948;-68
2022/03/02 15:28:31;;;;;;;;;;;;;;;;;;5090147;28;19964;-69
2022/03/02 15:30:57;;;;;;;;;;;;;;;;;;5089293;28;20343;-68
2022/03/02 15:33:23;;;;;;;;;;;;;;;;;;5090529;28;19909;-69
2022/03/02 15:35:49;;;;;;;;;;;;;;;;;;5090033;28;19909;-69
2022/03/02 15:38:15;;;;;;;;;;;;;;;;;;5090332;28;20394;-69
2022/03/02 15:40:41;;;;;;;;;;;;;;;;;;5090333;28;20364;-69
2022/03/02 15:43:07;;;;;;;;;;;;;;;;;;5088636;28;19915;-69
2022/03/02 15:45:35;;;;;;;;;;;;;;;;;;5090726;28;20058;-69
2022/03/02 15:48:01;;;;;;;;;;;;;;;;;;5101053;28;20390;-69
2022/03/02 15:50:27;;;;;;;;;;;;;;;;;;5110294;28;19908;-68
2022/03/02 15:52:53;;;;;;;;;;;;;;;;;;5110575;28;19908;-69
2022/03/02 15:55:21;;;;;;;;;;;;;;;;;;5092133;28;19908;-69
2022/03/02 15:57:47;;;;;;;;;;;;;;;;;;5091747;28;20276;-69
2022/03/02 16:00:13;;;;;;;;;;;;;;;;;;5098465;28;19908;-69
2022/03/02 16:02:39;;;;;;;;;;;;;;;;;;5097323;28;19909;-69
2022/03/02 16:05:05;;;;;;;;;;;;;;;;;;5096518;28;20275;-69
2022/03/02 16:07:31;;;;;;;;;;;;;;;;;;5096565;28;19912;-70
2022/03/02 16:09:58;;;;;;;;;;;;;;;;;;5096677;28;19919;-68
2022/03/02 16:12:24;;;;;;;;;;;;;;;;;;5096112;28;20007;-68
2022/03/02 16:14:50;;;;;;;;;;;;;;;;;;5096528;28;19995;-68
2022/03/02 16:17:16;;;;;;;;;;;;;;;;;;5096379;28;19908;-68
2022/03/02 16:19:43;;;;;;;;;;;;;;;;;;5095529;28;19908;-68
2022/03/02 16:22:09;;;;;;;;;;;;;;;;;;5096180;28;20364;-68
2022/03/02 16:24:35;;;;;;;;;;;;;;;;;;5095937;28;19953;-69
2022/03/02 16:27:01;;;;;;;;;;;;;;;;;;5077895;28;19953;-70
2022/03/02 16:29:27;;;;;;;;;;;;;;;;;;5096045;28;20002;-67
2022/03/02 16:31:53;;;;;;;;;;;;;;;;;;5095708;28;20405;-68
2022/03/02 16:34:19;;;;;;;;;;;;;;;;;;5095785;28;19908;-68
2022/03/02 16:36:45;;;;;;;;;;;;;;;;;;5077910;28;20313;-68
2022/03/02 16:39:11;;;;;;;;;;;;;;;;;;5095693;28;19908;-68
2022/03/02 16:41:37;;;;;;;;;;;;;;;;;;5077890;28;20314;-69
2022/03/02 16:44:03;;;;;;;;;;;;;;;;;;5096020;28;19908;-69
2022/03/02 16:46:29;;;;;;;;;;;;;;;;;;5077290;28;20394;-69
2022/03/02 16:48:55;;;;;;;;;;;;;;;;;;5095653;28;19963;-69
2022/03/02 16:51:21;;;;;;;;;;;;;;;;;;5095794;28;19908;-69
2022/03/02 16:53:47;;;;;;;;;;;;;;;;;;5095609;28;20324;-69
2022/03/02 16:56:13;;;;;;;;;;;;;;;;;;5077535;28;19936;-69
2022/03/02 16:58:39;;;;;;;;;;;;;;;;;;5094588;28;20332;-69
2022/03/02 17:01:06;;;;;;;;;;;;;;;;;;5094982;28;20415;-69